Time;durP1;ratioP1;P1;durP2;ratioP2;P2;SDS_P1;SDS_P2;PMS_P1;PMS_P2;Temp;Humidity;BMP_temperature;BMP_pressure;BME280_temperature;BME280_humidity;BME280_pressure;Samples;Min_cycle;Max_cycle;Signal;HPM_P1;HPM_P2
2021/06/29 00:02:24;;;;;;;8.10;6.60;;;24.30;99.90;;;;;;5143680;27;20531;-69
2021/06/29 00:04:53;;;;;;;7.50;6.80;;;24.20;99.90;;;;;;5136315;27;20170;-67
2021/06/29 00:07:18;;;;;;;8.93;6.33;;;24.20;99.90;;;;;;5136559;27;20197;-71
2021/06/29 00:09:45;;;;;;;8.50;6.27;;;24.20;99.90;;;;;;5136177;27;20417;-70
2021/06/29 00:12:12;;;;;;;7.10;6.27;;;24.10;99.90;;;;;;5117839;27;20468;-68
2021/06/29 00:14:39;;;;;;;7.50;6.80;;;24.10;99.90;;;;;;5135960;27;20416;-70
2021/06/29 00:17:05;;;;;;;8.43;7.40;;;24.10;99.90;;;;;;5117711;27;20437;-71
2021/06/29 00:19:32;;;;;;;8.77;6.43;;;24.00;99.90;;;;;;5117465;27;20821;-70
2021/06/29 00:21:57;;;;;;;9.93;7.13;;;24.00;99.90;;;;;;5136152;27;20206;-72
2021/06/29 00:24:23;;;;;;;9.20;7.40;;;24.00;99.90;;;;;;5135765;27;20494;-68
2021/06/29 00:26:49;;;;;;;9.27;7.53;;;24.00;99.90;;;;;;5117524;27;20199;-67
2021/06/29 00:29:14;;;;;;;10.63;7.37;;;23.90;99.90;;;;;;5135894;27;20634;-68
2021/06/29 00:31:40;;;;;;;7.37;6.00;;;23.90;99.90;;;;;;5117799;27;20705;-68
2021/06/29 00:34:06;;;;;;;7.77;6.20;;;23.80;99.90;;;;;;5117026;27;20707;-71
2021/06/29 00:36:32;;;;;;;8.40;6.83;;;23.80;99.90;;;;;;5135947;27;20196;-67
2021/06/29 00:38:57;;;;;;;11.00;6.93;;;23.80;99.90;;;;;;5135423;27;20515;-71
2021/06/29 00:41:23;;;;;;;9.00;6.93;;;23.80;99.90;;;;;;5136322;27;20200;-71
2021/06/29 00:43:51;;;;;;;9.27;6.43;;;23.80;99.90;;;;;;5135583;27;20224;-67
2021/06/29 00:46:17;;;;;;;8.53;7.00;;;23.70;99.90;;;;;;5136087;27;20210;-72
2021/06/29 00:48:44;;;;;;;12.07;8.10;;;23.70;99.90;;;;;;5135426;27;20959;-68
2021/06/29 00:51:17;;;;;;;9.23;7.70;;;23.70;99.90;;;;;;5135216;27;20515;-71
2021/06/29 00:53:44;;;;;;;8.07;7.00;;;23.60;99.90;;;;;;5135311;27;20408;-68
2021/06/29 00:56:19;;;;;;;12.43;7.53;;;23.60;99.90;;;;;;5134831;27;20459;-67
2021/06/29 00:58:45;;;;;;;11.43;8.20;;;23.60;99.90;;;;;;5135560;27;20411;-68
2021/06/29 01:01:12;;;;;;;11.60;6.90;;;23.50;99.90;;;;;;5135373;27;20462;-71
2021/06/29 01:03:38;;;;;;;10.00;7.03;;;23.40;99.90;;;;;;5135008;27;20414;-71
2021/06/29 01:06:12;;;;;;;9.20;7.17;;;23.40;99.90;;;;;;5135395;27;20944;-67
2021/06/29 01:08:38;;;;;;;15.07;8.00;;;23.30;99.90;;;;;;5116559;27;20437;-71
2021/06/29 01:11:04;;;;;;;9.20;6.70;;;23.30;99.90;;;;;;5116790;27;20475;-71
2021/06/29 01:13:30;;;;;;;9.30;7.17;;;23.20;99.90;;;;;;5134989;27;20419;-71
2021/06/29 01:15:57;;;;;;;11.67;7.90;;;23.20;99.90;;;;;;5135440;27;20199;-67
2021/06/29 01:18:23;;;;;;;7.97;7.20;;;23.10;99.90;;;;;;5116462;27;20939;-71
2021/06/29 01:20:48;;;;;;;7.97;7.17;;;23.10;99.90;;;;;;5116550;27;20455;-71
2021/06/29 01:23:18;;;;;;;9.90;7.43;;;23.10;99.90;;;;;;5134839;27;20468;-67
2021/06/29 01:25:44;;;;;;;9.10;7.80;;;23.10;99.90;;;;;;5116481;27;20199;-71
2021/06/29 01:28:24;;;;;;;10.60;7.60;;;23.00;99.90;;;;;;5134589;27;20409;-68
2021/06/29 01:31:02;;;;;;;8.97;8.03;;;23.00;99.90;;;;;;5134454;27;20565;-71
2021/06/29 01:33:28;;;;;;;9.47;7.80;;;23.00;99.90;;;;;;5134652;27;20411;-71
2021/06/29 01:35:54;;;;;;;9.90;7.03;;;22.90;99.90;;;;;;5134893;27;20435;-67
2021/06/29 01:38:23;;;;;;;8.93;7.70;;;22.90;99.90;;;;;;5134621;27;20182;-67
2021/06/29 01:40:50;;;;;;;15.70;7.37;;;22.90;99.90;;;;;;5134918;27;20495;-71
2021/06/29 01:43:19;;;;;;;8.03;7.23;;;22.90;99.90;;;;;;5115907;28;20480;-67
2021/06/29 01:45:48;;;;;;;7.60;6.77;;;22.80;99.90;;;;;;5134990;27;20439;-68
2021/06/29 01:48:24;;;;;;;8.47;7.10;;;22.80;99.90;;;;;;5134390;27;20415;-67
2021/06/29 01:50:55;;;;;;;8.73;7.83;;;22.80;99.90;;;;;;5133738;27;20490;-67
2021/06/29 01:53:21;;;;;;;11.47;8.30;;;22.80;99.90;;;;;;5134390;27;20407;-67
2021/06/29 01:55:47;;;;;;;8.50;7.10;;;22.80;99.90;;;;;;5116109;28;20883;-71
2021/06/29 01:58:20;;;;;;;9.50;6.87;;;22.80;99.90;;;;;;5134358;28;20447;-70
2021/06/29 02:00:46;;;;;;;9.03;8.00;;;22.80;99.90;;;;;;5116215;28;20542;-71
2021/06/29 02:03:11;;;;;;;13.70;8.43;;;22.70;99.90;;;;;;5116363;27;20988;-67
2021/06/29 02:05:37;;;;;;;10.37;6.90;;;22.70;99.90;;;;;;5155378;27;20198;-71
2021/06/29 02:08:03;;;;;;;8.70;7.80;;;22.70;99.90;;;;;;5151789;27;20179;-67
2021/06/29 02:10:28;;;;;;;7.63;6.83;;;22.70;99.90;;;;;;5138861;27;20206;-67
2021/06/29 02:12:56;;;;;;;10.30;7.20;;;22.60;99.90;;;;;;5138479;27;20179;-68
2021/06/29 02:15:22;;;;;;;8.50;7.60;;;22.60;99.90;;;;;;5120170;27;20195;-71
2021/06/29 02:17:48;;;;;;;10.33;8.27;;;22.50;99.90;;;;;;5120002;27;20411;-67
2021/06/29 02:20:16;;;;;;;12.70;8.20;;;22.50;99.90;;;;;;5138471;27;20441;-68
2021/06/29 02:22:42;;;;;;;12.90;9.33;;;22.50;99.90;;;;;;5138319;27;20275;-68
2021/06/29 02:25:08;;;;;;;9.00;8.10;;;22.50;99.90;;;;;;5137969;27;20521;-67
2021/06/29 02:27:34;;;;;;;8.67;7.50;;;22.40;99.90;;;;;;5119862;27;20255;-70
2021/06/29 02:30:00;;;;;;;11.70;8.93;;;22.40;99.90;;;;;;5138486;27;20457;-67
2021/06/29 02:32:26;;;;;;;12.93;9.43;;;22.40;99.90;;;;;;5119548;27;20218;-71
2021/06/29 02:34:52;;;;;;;9.13;8.17;;;22.40;99.90;;;;;;5119859;27;20565;-71
2021/06/29 02:37:18;;;;;;;13.10;7.70;;;22.40;99.90;;;;;;5119791;27;20399;-67
2021/06/29 02:39:43;;;;;;;12.23;9.10;;;22.40;99.90;;;;;;5137756;27;20407;-71
2021/06/29 02:42:09;;;;;;;11.83;8.10;;;22.30;99.90;;;;;;5138248;27;20991;-71
2021/06/29 02:44:36;;;;;;;11.90;8.10;;;22.30;99.90;;;;;;5137785;27;20670;-71
2021/06/29 02:47:03;;;;;;;9.33;8.33;;;22.20;99.90;;;;;;5137875;27;20243;-71
2021/06/29 02:49:28;;;;;;;9.00;8.10;;;22.20;99.90;;;;;;5137862;27;20911;-67
2021/06/29 02:51:54;;;;;;;14.33;8.70;;;22.20;99.90;;;;;;5137433;27;20531;-68
2021/06/29 02:54:19;;;;;;;10.63;9.57;;;22.20;99.90;;;;;;5137762;27;20175;-71
2021/06/29 02:56:45;;;;;;;9.80;8.47;;;22.20;99.90;;;;;;5138149;27;20203;-71
2021/06/29 02:59:14;;;;;;;10.10;8.30;;;22.20;99.90;;;;;;5137422;27;20656;-71
2021/06/29 03:01:40;;;;;;;11.20;8.70;;;22.20;99.90;;;;;;5119290;27;20457;-67
2021/06/29 03:04:06;;;;;;;12.70;9.00;;;22.20;99.90;;;;;;5118959;27;20939;-70
2021/06/29 03:06:32;;;;;;;10.10;9.03;;;22.20;99.90;;;;;;5138126;27;20442;-71
2021/06/29 03:09:42;;;;;;;13.40;9.17;;;22.20;99.90;;;;;;5118993;27;20175;-71
2021/06/29 03:12:09;;;;;;;10.40;8.50;;;22.20;99.90;;;;;;5137444;27;20895;-67
2021/06/29 03:14:36;;;;;;;11.63;8.70;;;22.20;99.90;;;;;;5137230;27;20767;-67
2021/06/29 03:17:05;;;;;;;9.80;8.23;;;22.30;99.90;;;;;;5118931;27;20462;-71
2021/06/29 03:19:32;;;;;;;9.40;8.40;;;22.30;99.90;;;;;;5136506;27;20845;-67
2021/06/29 03:21:57;;;;;;;12.33;9.00;;;22.30;99.90;;;;;;5137469;27;20549;-67
2021/06/29 03:24:23;;;;;;;12.33;8.80;;;22.30;99.90;;;;;;5137018;27;20494;-71
2021/06/29 03:26:49;;;;;;;9.17;8.27;;;22.30;99.90;;;;;;5137031;27;20203;-69
2021/06/29 03:29:15;;;;;;;11.63;9.70;;;22.30;99.90;;;;;;5118307;27;20198;-71
2021/06/29 03:31:41;;;;;;;10.43;9.27;;;22.40;99.90;;;;;;5137423;27;20479;-66
2021/06/29 03:34:06;;;;;;;12.63;9.50;;;22.40;99.90;;;;;;5118477;27;20179;-67
2021/06/29 03:36:32;;;;;;;13.63;8.40;;;22.40;99.90;;;;;;5137548;27;20199;-71
2021/06/29 03:38:58;;;;;;;16.23;9.63;;;22.40;99.90;;;;;;5118169;27;20185;-67
2021/06/29 03:41:24;;;;;;;15.90;9.67;;;22.40;99.90;;;;;;5137234;27;20199;-67
2021/06/29 03:43:50;;;;;;;11.07;9.50;;;22.40;99.90;;;;;;5118152;27;20186;-71
2021/06/29 03:46:15;;;;;;;13.30;9.53;;;22.50;99.90;;;;;;5137041;27;20435;-67
2021/06/29 03:48:41;;;;;;;11.53;8.00;;;22.50;99.90;;;;;;5136642;27;20179;-71
2021/06/29 03:51:06;;;;;;;13.27;8.40;;;22.50;99.90;;;;;;5134183;27;20253;-67
2021/06/29 03:53:32;;;;;;;13.43;8.50;;;22.60;99.90;;;;;;5116950;27;20187;-67
2021/06/29 03:55:58;;;;;;;9.27;8.23;;;22.60;99.90;;;;;;5135204;27;20214;-67
2021/06/29 03:58:24;;;;;;;14.07;8.90;;;22.60;99.90;;;;;;5136036;27;20550;-67
2021/06/29 04:00:49;;;;;;;9.50;8.50;;;22.60;99.90;;;;;;5118683;27;20344;-67
2021/06/29 04:03:15;;;;;;;12.10;9.37;;;22.70;99.90;;;;;;5145206;27;20594;-71
2021/06/29 04:05:40;;;;;;;9.27;8.30;;;22.70;99.90;;;;;;5114910;27;20202;-67
2021/06/29 04:08:06;;;;;;;10.67;8.97;;;22.70;99.90;;;;;;5118005;27;20183;-71
2021/06/29 04:10:32;;;;;;;11.53;9.00;;;22.80;99.90;;;;;;5117806;27;20199;-67
2021/06/29 04:12:58;;;;;;;9.20;7.83;;;22.80;99.90;;;;;;5116594;27;20175;-70
2021/06/29 04:15:24;;;;;;;10.77;8.70;;;22.80;99.90;;;;;;5132874;27;20935;-67
2021/06/29 04:17:50;;;;;;;10.47;8.87;;;22.80;99.90;;;;;;5131955;27;20197;-72
2021/06/29 04:20:15;;;;;;;12.63;8.77;;;22.80;99.90;;;;;;5133371;27;20607;-68
2021/06/29 04:22:41;;;;;;;12.03;8.90;;;22.80;99.90;;;;;;5132008;27;20183;-71
2021/06/29 04:25:09;;;;;;;9.73;8.73;;;22.90;99.90;;;;;;5130556;27;20223;-71
2021/06/29 04:27:35;;;;;;;9.40;8.57;;;22.80;99.90;;;;;;5133295;27;20186;-67
2021/06/29 04:30:01;;;;;;;9.87;8.70;;;22.90;99.90;;;;;;5133567;27;20524;-67
2021/06/29 04:32:26;;;;;;;11.03;9.20;;;22.90;99.90;;;;;;5134618;27;20469;-67
2021/06/29 04:34:52;;;;;;;10.73;8.20;;;22.90;99.90;;;;;;5135701;27;20407;-67
2021/06/29 04:37:18;;;;;;;12.13;9.47;;;23.00;99.90;;;;;;5133680;27;20211;-72
2021/06/29 04:39:44;;;;;;;9.83;8.67;;;23.00;99.90;;;;;;5117409;27;20207;-68
2021/06/29 04:42:10;;;;;;;14.33;8.53;;;23.00;99.90;;;;;;5134409;27;20223;-68
2021/06/29 04:44:38;;;;;;;10.57;9.47;;;23.10;99.90;;;;;;5122692;27;20431;-71
2021/06/29 04:47:08;;;;;;;11.90;8.27;;;23.10;99.90;;;;;;5133896;27;20431;-68
2021/06/29 04:49:34;;;;;;;11.77;8.80;;;23.20;99.90;;;;;;5133634;27;20422;-71
2021/06/29 04:52:00;;;;;;;10.10;8.43;;;23.20;99.90;;;;;;5115972;27;20475;-67
2021/06/29 04:54:26;;;;;;;13.60;10.33;;;23.20;99.90;;;;;;5117073;27;20426;-68
2021/06/29 04:56:51;;;;;;;13.50;9.03;;;23.30;99.90;;;;;;5133677;27;20203;-71
2021/06/29 04:59:17;;;;;;;8.23;7.53;;;23.30;99.90;;;;;;5114779;27;20657;-69
2021/06/29 05:01:43;;;;;;;9.10;7.90;;;23.40;99.90;;;;;;5113797;27;20215;-71
2021/06/29 05:04:09;;;;;;;11.67;9.03;;;23.40;99.90;;;;;;5115514;27;20173;-69
2021/06/29 05:06:34;;;;;;;9.30;8.50;;;23.50;99.90;;;;;;5133598;27;20543;-69
2021/06/29 05:09:00;;;;;;;9.00;7.80;;;23.60;99.90;;;;;;5114489;27;20424;-69
2021/06/29 05:11:25;;;;;;;9.90;8.90;;;23.60;99.90;;;;;;5121652;27;20220;-72
2021/06/29 05:13:51;;;;;;;8.60;7.70;;;23.70;99.90;;;;;;5113651;27;20266;-69
2021/06/29 05:16:17;;;;;;;8.40;7.70;;;23.80;99.90;;;;;;5131803;27;20211;-72
2021/06/29 05:18:42;;;;;;;10.83;7.37;;;23.90;99.90;;;;;;5133114;27;20210;-72
2021/06/29 05:21:08;;;;;;;9.10;8.30;;;24.00;99.90;;;;;;5134022;27;20287;-68
2021/06/29 05:23:34;;;;;;;9.10;7.70;;;24.00;99.90;;;;;;5134499;27;20230;-72
2021/06/29 05:25:59;;;;;;;9.03;8.10;;;24.10;99.90;;;;;;5134948;27;20271;-68
2021/06/29 05:28:25;;;;;;;8.87;7.97;;;24.20;99.90;;;;;;5120831;27;20225;-72
2021/06/29 05:30:51;;;;;;;9.20;7.93;;;24.30;99.90;;;;;;5133137;27;20281;-71
2021/06/29 05:33:18;;;;;;;11.40;6.77;;;24.30;99.90;;;;;;5125116;27;20430;-68
2021/06/29 05:35:44;;;;;;;10.83;8.00;;;24.40;99.90;;;;;;5111542;27;20271;-68
2021/06/29 05:38:11;;;;;;;8.97;7.67;;;24.50;99.90;;;;;;5115159;27;20420;-72
2021/06/29 05:40:37;;;;;;;13.03;8.47;;;24.60;99.90;;;;;;5129952;27;20457;-72
2021/06/29 05:43:03;;;;;;;8.53;7.73;;;24.70;99.90;;;;;;5114921;27;20418;-71
2021/06/29 05:45:29;;;;;;;9.60;7.97;;;24.80;99.90;;;;;;5120922;27;20978;-68
2021/06/29 05:47:56;;;;;;;8.50;7.40;;;24.90;99.90;;;;;;5114494;28;20192;-69
2021/06/29 05:50:22;;;;;;;9.40;8.57;;;25.00;99.90;;;;;;5109691;28;20298;-68
2021/06/29 05:53:07;;;;;;;8.53;7.63;;;25.10;99.90;;;;;;5113495;27;20456;-72
2021/06/29 05:55:33;;;;;;;7.63;6.93;;;25.20;99.90;;;;;;5105869;28;20542;-68
2021/06/29 05:57:58;;;;;;;8.80;8.00;;;25.30;99.90;;;;;;5118147;28;20175;-70
2021/06/29 06:00:24;;;;;;;9.10;7.43;;;25.30;99.90;;;;;;5131595;28;20261;-68
2021/06/29 06:02:50;;;;;;;15.00;8.10;;;25.40;99.90;;;;;;5130471;28;20603;-68
2021/06/29 06:05:16;;;;;;;9.10;8.07;;;25.60;99.90;;;;;;5111966;28;20322;-71
2021/06/29 06:07:42;;;;;;;9.60;8.43;;;25.60;99.90;;;;;;5131708;28;20167;-68
2021/06/29 06:10:08;;;;;;;7.50;6.90;;;25.70;99.90;;;;;;5112600;28;21049;-68
2021/06/29 06:12:34;;;;;;;9.23;7.73;;;25.90;99.90;;;;;;5111434;28;20207;-68
2021/06/29 06:14:59;;;;;;;8.23;7.43;;;25.90;99.90;;;;;;5125295;27;20450;-68
2021/06/29 06:17:26;;;;;;;14.33;7.73;;;26.00;99.90;;;;;;5129496;27;20430;-72
2021/06/29 06:19:53;;;;;;;10.40;7.90;;;26.10;99.90;;;;;;5104615;28;20177;-66
2021/06/29 06:22:19;;;;;;;9.20;8.30;;;26.20;99.90;;;;;;5121778;28;20393;-68
2021/06/29 06:24:45;;;;;;;8.10;7.40;;;26.30;99.90;;;;;;5124590;28;20171;-72
2021/06/29 06:27:13;;;;;;;9.90;7.73;;;26.50;99.90;;;;;;5110379;28;20419;-67
2021/06/29 06:29:39;;;;;;;7.20;6.60;;;26.60;99.90;;;;;;5129806;28;20178;-68
2021/06/29 06:32:06;;;;;;;8.23;7.53;;;26.80;99.90;;;;;;5108914;28;20454;-71
2021/06/29 06:34:33;;;;;;;7.80;6.57;;;26.90;99.90;;;;;;5108670;28;20479;-71
2021/06/29 06:36:59;;;;;;;7.20;6.50;;;27.10;99.90;;;;;;5128868;28;20914;-71
2021/06/29 06:39:24;;;;;;;9.60;7.60;;;27.20;99.90;;;;;;5109684;28;20411;-71
2021/06/29 06:41:50;;;;;;;8.17;7.37;;;27.40;99.90;;;;;;5109726;28;20454;-68
2021/06/29 06:44:15;;;;;;;8.07;7.27;;;27.50;99.90;;;;;;5128227;28;20210;-67
2021/06/29 06:46:41;;;;;;;7.87;6.90;;;27.60;99.90;;;;;;5128301;28;20230;-71
2021/06/29 06:49:07;;;;;;;8.37;7.53;;;27.80;99.90;;;;;;5110938;28;20183;-71
2021/06/29 06:51:32;;;;;;;7.70;7.00;;;27.90;99.90;;;;;;5130394;27;20242;-67
2021/06/29 06:53:58;;;;;;;8.67;7.30;;;28.10;99.90;;;;;;5113593;27;20219;-68
2021/06/29 06:56:24;;;;;;;7.77;7.10;;;28.20;99.90;;;;;;5134627;27;20199;-71
2021/06/29 06:58:50;;;;;;;8.53;6.77;;;28.40;99.90;;;;;;5114075;27;20456;-68
2021/06/29 07:01:16;;;;;;;7.60;6.80;;;28.50;99.90;;;;;;5128296;27;20234;-72
2021/06/29 07:03:44;;;;;;;7.30;6.60;;;28.60;99.90;;;;;;5105469;27;20264;-68
2021/06/29 07:06:12;;;;;;;7.73;7.03;;;28.80;99.90;;;;;;5115127;27;20991;-68
2021/06/29 07:08:37;;;;;;;7.90;7.13;;;28.90;99.90;;;;;;5133852;27;20492;-67
2021/06/29 07:11:03;;;;;;;7.10;6.47;;;29.10;99.90;;;;;;5114786;27;20581;-71
2021/06/29 07:13:29;;;;;;;8.10;7.40;;;29.20;99.90;;;;;;5132385;27;20264;-72
2021/06/29 07:15:55;;;;;;;15.73;7.53;;;29.30;99.90;;;;;;5132400;27;20302;-68
2021/06/29 07:18:21;;;;;;;8.20;7.43;;;29.40;99.90;;;;;;5133945;27;20420;-68
2021/06/29 07:20:47;;;;;;;8.77;7.87;;;29.40;99.90;;;;;;5111013;27;20216;-68
2021/06/29 07:23:13;;;;;;;8.20;7.50;;;29.50;99.90;;;;;;5134845;27;20189;-69
2021/06/29 07:25:40;;;;;;;7.77;7.17;;;29.60;99.90;;;;;;5115283;27;20546;-68
2021/06/29 07:28:07;;;;;;;7.97;7.30;;;29.80;99.90;;;;;;5128158;27;20429;-68
2021/06/29 07:30:33;;;;;;;8.47;7.67;;;29.90;99.90;;;;;;5130214;27;20447;-68
2021/06/29 07:32:59;;;;;;;7.97;7.13;;;30.00;99.90;;;;;;5122692;27;20465;-72
2021/06/29 07:35:28;;;;;;;7.63;7.00;;;30.10;99.90;;;;;;5131612;27;20719;-71
2021/06/29 07:37:54;;;;;;;7.97;6.73;;;30.10;99.90;;;;;;5129780;27;20219;-69
2021/06/29 07:40:20;;;;;;;6.70;6.00;;;30.20;99.90;;;;;;5133285;27;20454;-72
2021/06/29 07:42:45;;;;;;;8.03;7.23;;;30.30;99.90;;;;;;5111031;27;20426;-72
2021/06/29 07:45:12;;;;;;;7.70;7.10;;;30.30;99.90;;;;;;5133183;27;20459;-69
2021/06/29 07:47:38;;;;;;;6.90;6.40;;;30.40;99.90;;;;;;5129539;27;20191;-68
2021/06/29 07:50:07;;;;;;;13.37;7.50;;;30.50;99.90;;;;;;5126323;27;20449;-68
2021/06/29 07:52:33;;;;;;;7.00;6.30;;;30.60;99.90;;;;;;5115086;27;20839;-68
2021/06/29 07:54:59;;;;;;;7.07;6.53;;;30.60;99.90;;;;;;5133346;27;20771;-72
2021/06/29 07:57:28;;;;;;;6.73;6.13;;;30.70;99.90;;;;;;5133555;27;20418;-72
2021/06/29 07:59:53;;;;;;;6.93;6.43;;;30.80;99.90;;;;;;5133876;27;20201;-71
2021/06/29 08:02:19;;;;;;;8.30;6.60;;;30.90;99.90;;;;;;5128297;27;21110;-72
2021/06/29 08:04:46;;;;;;;6.70;5.83;;;31.00;99.90;;;;;;5126229;27;20203;-71
2021/06/29 08:07:11;;;;;;;6.77;6.17;;;31.10;99.90;;;;;;5105171;28;20228;-72
2021/06/29 08:09:37;;;;;;;6.90;6.30;;;31.10;99.90;;;;;;5132606;27;20790;-72
2021/06/29 08:12:04;;;;;;;6.80;6.30;;;31.30;99.90;;;;;;5111276;27;20542;-71
2021/06/29 08:14:30;;;;;;;7.50;6.10;;;31.40;98.60;;;;;;5111886;27;20429;-69
2021/06/29 08:16:56;;;;;;;13.80;7.07;;;31.50;99.90;;;;;;5128705;27;20450;-68
2021/06/29 08:19:21;;;;;;;7.80;5.80;;;31.50;99.90;;;;;;5130483;27;20695;-68
2021/06/29 08:21:49;;;;;;;6.90;6.20;;;31.60;99.90;;;;;;5128795;27;20195;-72
2021/06/29 08:24:15;;;;;;;6.10;5.50;;;31.70;99.10;;;;;;5109904;27;20247;-72
2021/06/29 08:26:40;;;;;;;5.90;5.40;;;31.80;98.70;;;;;;5132049;27;20466;-68
2021/06/29 08:29:06;;;;;;;6.13;5.60;;;31.90;98.30;;;;;;5133416;27;21539;-69
2021/06/29 08:31:31;;;;;;;6.27;5.53;;;31.90;98.40;;;;;;5127786;27;20763;-69
2021/06/29 08:33:57;;;;;;;5.90;5.40;;;32.00;97.80;;;;;;5124434;27;20188;-69
2021/06/29 08:36:23;;;;;;;5.60;5.20;;;32.00;97.20;;;;;;5125927;27;20209;-69
2021/06/29 08:38:49;;;;;;;5.80;5.23;;;32.00;96.50;;;;;;5124923;27;20163;-72
2021/06/29 08:41:16;;;;;;;5.43;5.03;;;32.10;95.90;;;;;;5132263;27;20203;-68
2021/06/29 08:43:42;;;;;;;5.57;4.93;;;32.20;97.30;;;;;;5105579;27;20851;-68
2021/06/29 08:46:09;;;;;;;5.43;4.93;;;32.20;95.50;;;;;;5112610;27;20559;-68
2021/06/29 08:48:36;;;;;;;4.90;4.50;;;32.30;95.50;;;;;;5125887;27;20450;-72
2021/06/29 08:51:05;;;;;;;6.00;4.73;;;32.30;94.40;;;;;;5109707;27;20471;-72
2021/06/29 08:53:32;;;;;;;5.97;5.33;;;32.40;95.30;;;;;;5107119;27;20426;-72
2021/06/29 08:55:58;;;;;;;7.30;4.50;;;32.40;93.50;;;;;;5110254;27;20463;-68
2021/06/29 08:58:25;;;;;;;5.30;4.90;;;32.50;93.70;;;;;;5126528;27;20462;-73
2021/06/29 09:00:52;;;;;;;7.83;5.13;;;32.50;93.30;;;;;;5106224;27;20458;-72
2021/06/29 09:03:18;;;;;;;4.90;4.50;;;32.60;94.60;;;;;;5110412;27;20411;-72
2021/06/29 09:05:51;;;;;;;5.90;5.20;;;32.60;94.10;;;;;;5127063;27;20452;-72
2021/06/29 09:08:20;;;;;;;4.83;4.37;;;32.80;93.30;;;;;;5121644;27;20419;-72
2021/06/29 09:11:04;;;;;;;5.23;4.70;;;32.90;92.50;;;;;;5130469;27;20447;-73
2021/06/29 09:13:30;;;;;;;5.00;4.70;;;32.90;92.60;;;;;;5108703;28;20434;-69
2021/06/29 09:15:57;;;;;;;4.83;4.43;;;33.00;91.90;;;;;;5114668;27;21801;-69
2021/06/29 09:18:25;;;;;;;9.20;5.00;;;33.10;91.60;;;;;;5106835;28;20959;-69
2021/06/29 09:21:00;;;;;;;4.27;3.97;;;33.20;90.90;;;;;;5125700;27;20470;-72
2021/06/29 09:23:48;;;;;;;5.07;4.40;;;33.20;90.90;;;;;;5138787;27;20403;-69
2021/06/29 09:26:17;;;;;;;6.00;5.07;;;33.20;90.90;;;;;;5122914;27;20915;-69
2021/06/29 09:28:47;;;;;;;6.07;5.67;;;33.30;91.80;;;;;;5111323;27;20940;-72
2021/06/29 09:31:19;;;;;;;5.80;5.40;;;33.40;91.10;;;;;;5101053;28;20509;-69
2021/06/29 09:33:51;;;;;;;5.43;5.00;;;33.50;90.00;;;;;;5108771;27;20972;-69
2021/06/29 09:36:20;;;;;;;6.30;4.87;;;33.60;90.70;;;;;;5116192;27;20436;-72
2021/06/29 09:38:48;;;;;;;5.27;4.87;;;33.60;90.30;;;;;;5120755;27;20518;-72
2021/06/29 09:41:25;;;;;;;5.07;4.67;;;33.60;90.30;;;;;;5122491;27;20467;-72
2021/06/29 09:43:56;;;;;;;5.17;4.77;;;33.70;90.90;;;;;;5119165;27;20667;-72
2021/06/29 09:46:23;;;;;;;6.33;5.80;;;33.80;90.50;;;;;;5123693;27;20450;-72
2021/06/29 09:48:56;;;;;;;5.93;5.47;;;33.90;90.50;;;;;;5128941;27;20511;-69
2021/06/29 09:51:30;;;;;;;6.17;5.67;;;34.00;90.30;;;;;;5123814;27;20533;-68
2021/06/29 09:53:58;;;;;;;6.77;6.07;;;34.00;90.00;;;;;;5132588;27;20414;-69
2021/06/29 09:56:32;;;;;;;7.00;6.40;;;34.00;90.80;;;;;;5118814;27;20451;-72
2021/06/29 09:58:59;;;;;;;6.80;6.17;;;34.10;90.60;;;;;;5138179;27;20403;-73
2021/06/29 10:01:28;;;;;;;5.93;5.33;;;34.10;91.10;;;;;;5111271;28;20443;-69
2021/06/29 10:03:55;;;;;;;5.50;5.10;;;34.30;90.70;;;;;;5134085;27;20788;-72
2021/06/29 10:06:26;;;;;;;5.37;4.87;;;34.30;86.70;;;;;;5109190;28;20862;-68
2021/06/29 10:09:13;;;;;;;6.90;6.30;;;34.30;86.90;;;;;;5129006;28;20534;-69
2021/06/29 10:11:44;;;;;;;7.00;6.40;;;34.30;87.80;;;;;;5130843;27;20999;-71
2021/06/29 10:14:15;;;;;;;7.30;6.70;;;34.40;86.10;;;;;;5098839;28;20415;-69
2021/06/29 10:16:45;;;;;;;6.80;6.30;;;34.40;86.40;;;;;;5128311;27;20461;-68
2021/06/29 10:21:44;;;;;;;7.07;6.47;;;34.50;86.50;;;;;;5125660;28;20451;-69
2021/06/29 10:24:13;;;;;;;6.30;5.80;;;34.50;86.30;;;;;;5129076;27;20403;-72
2021/06/29 10:26:41;;;;;;;6.80;6.20;;;34.50;86.00;;;;;;5128472;28;20447;-70
2021/06/29 10:29:08;;;;;;;6.40;5.83;;;34.60;87.00;;;;;;5107856;27;20952;-69
2021/06/29 10:32:07;;;;;;;6.57;6.07;;;34.70;86.50;;;;;;5109206;27;20478;-69
2021/06/29 10:34:37;;;;;;;6.70;6.20;;;34.70;84.30;;;;;;5110654;27;20516;-73
2021/06/29 10:37:04;;;;;;;9.25;6.38;;;34.70;84.10;;;;;;5104290;27;20984;-73
2021/06/29 10:39:32;;;;;;;6.88;6.18;;;34.70;83.90;;;;;;5125408;27;21175;-69
2021/06/29 10:42:07;;;;;;;6.70;6.10;;;34.80;83.20;;;;;;5107982;27;20497;-72
2021/06/29 10:44:39;;;;;;;8.97;6.60;;;34.80;83.50;;;;;;5131545;27;20477;-72
2021/06/29 10:47:19;;;;;;;6.30;5.90;;;34.80;83.80;;;;;;5114909;27;20495;-72
2021/06/29 10:49:49;;;;;;;6.30;5.83;;;34.80;83.70;;;;;;5131161;27;20450;-68
2021/06/29 10:52:27;;;;;;;6.30;5.80;;;34.80;80.70;;;;;;5132685;27;20988;-72
2021/06/29 10:54:57;;;;;;;6.53;6.03;;;34.80;80.50;;;;;;5120328;27;20438;-71
2021/06/29 10:57:41;;;;;;;5.87;5.47;;;34.80;81.50;;;;;;5131784;27;20793;-69
2021/06/29 11:00:18;;;;;;;6.50;5.90;;;34.80;83.10;;;;;;5131624;27;20538;-69
2021/06/29 11:03:05;;;;;;;6.50;6.00;;;34.80;79.70;;;;;;5127841;27;20437;-69
2021/06/29 11:05:42;;;;;;;6.90;6.40;;;34.80;81.80;;;;;;5132429;27;20513;-72
2021/06/29 11:08:09;;;;;;;6.70;6.20;;;34.90;81.80;;;;;;5120803;27;20441;-69
2021/06/29 11:10:37;;;;;;;7.33;6.83;;;34.80;81.80;;;;;;5110521;27;20876;-69
2021/06/29 11:13:04;;;;;;;7.43;6.93;;;34.80;81.40;;;;;;5132271;27;20451;-72
2021/06/29 11:15:54;;;;;;;6.60;6.10;;;34.80;81.10;;;;;;5122893;27;20525;-73
2021/06/29 11:18:40;;;;;;;6.90;6.33;;;34.90;82.90;;;;;;5118541;27;20463;-73
2021/06/29 11:21:29;;;;;;;6.97;6.37;;;35.00;82.30;;;;;;5113430;27;20568;-73
2021/06/29 11:23:55;;;;;;;6.47;5.97;;;35.00;79.90;;;;;;5119651;27;20779;-72
2021/06/29 11:26:24;;;;;;;5.87;5.47;;;35.10;80.20;;;;;;5111227;27;20455;-73
2021/06/29 11:28:51;;;;;;;5.57;5.07;;;35.10;78.10;;;;;;5114384;27;20542;-70
2021/06/29 11:31:20;;;;;;;6.07;5.67;;;35.20;75.80;;;;;;5132125;27;20467;-72
2021/06/29 11:34:09;;;;;;;6.70;6.20;;;35.20;75.00;;;;;;5115175;27;20407;-72
2021/06/29 11:36:36;;;;;;;5.90;5.50;;;35.30;76.40;;;;;;5084888;28;20827;-72
2021/06/29 11:39:23;;;;;;;6.43;5.87;;;35.40;75.60;;;;;;5112676;27;20818;-69
2021/06/29 11:42:03;;;;;;;5.67;5.27;;;35.40;75.00;;;;;;5117091;27;21047;-69
2021/06/29 11:44:29;;;;;;;5.57;5.13;;;35.50;74.60;;;;;;5117593;27;20411;-69
2021/06/29 11:47:07;;;;;;;5.63;5.13;;;35.50;74.90;;;;;;5132514;27;20451;-68
2021/06/29 11:49:33;;;;;;;6.27;5.77;;;35.40;74.80;;;;;;5113619;27;20175;-72
2021/06/29 11:52:00;;;;;;;6.80;6.30;;;35.40;73.70;;;;;;5131357;27;20474;-70
2021/06/29 11:54:31;;;;;;;6.63;6.03;;;35.40;74.60;;;;;;5129873;27;20195;-70
2021/06/29 11:56:58;;;;;;;6.40;5.90;;;35.40;75.10;;;;;;5132530;27;20837;-73
2021/06/29 11:59:28;;;;;;;6.70;6.10;;;35.40;75.80;;;;;;5110260;27;20413;-69
2021/06/29 12:02:03;;;;;;;6.90;6.40;;;35.40;74.60;;;;;;5124477;27;20580;-70
2021/06/29 12:04:28;;;;;;;6.93;6.23;;;35.40;75.30;;;;;;5105247;28;20407;-73
2021/06/29 12:07:12;;;;;;;6.97;6.40;;;35.40;76.00;;;;;;5112704;27;20458;-70
2021/06/29 12:09:38;;;;;;;6.30;5.90;;;35.40;74.90;;;;;;5118012;27;20211;-72
2021/06/29 12:12:22;;;;;;;6.53;6.03;;;35.40;74.80;;;;;;5115182;27;21060;-67
2021/06/29 12:14:57;;;;;;;6.40;5.83;;;35.40;74.60;;;;;;5118035;27;20449;-68
2021/06/29 12:17:23;;;;;;;7.30;6.70;;;35.50;75.30;;;;;;5134413;27;20410;-71
2021/06/29 12:19:56;;;;;;;7.57;6.97;;;35.50;75.80;;;;;;5135167;27;20951;-68
2021/06/29 12:22:27;;;;;;;6.73;6.23;;;35.60;78.00;;;;;;5123936;27;20258;-71
2021/06/29 12:24:53;;;;;;;6.47;5.97;;;35.60;75.20;;;;;;5103719;27;20431;-68
2021/06/29 12:27:19;;;;;;;6.23;5.63;;;35.70;75.00;;;;;;5115810;27;20787;-68
2021/06/29 12:29:44;;;;;;;7.63;7.10;;;35.70;74.10;;;;;;5133265;27;20182;-72
2021/06/29 12:32:25;;;;;;;7.37;6.80;;;35.70;75.30;;;;;;5111397;27;20203;-71
2021/06/29 12:35:10;;;;;;;7.20;6.70;;;35.70;74.40;;;;;;5132994;27;20220;-69
2021/06/29 12:37:57;;;;;;;7.73;7.13;;;35.70;75.60;;;;;;5131685;27;20446;-69
2021/06/29 12:40:26;;;;;;;6.73;6.10;;;35.70;76.50;;;;;;5101390;27;20447;-72
2021/06/29 12:42:52;;;;;;;7.37;6.87;;;35.70;76.40;;;;;;5114522;27;20412;-69
2021/06/29 12:45:21;;;;;;;7.40;6.90;;;35.80;74.50;;;;;;5134723;27;20470;-72
2021/06/29 12:47:59;;;;;;;7.80;7.13;;;35.80;74.60;;;;;;5134980;27;20487;-69
2021/06/29 12:50:25;;;;;;;8.13;7.57;;;35.80;76.20;;;;;;5132969;27;20451;-72
2021/06/29 12:52:52;;;;;;;9.90;9.10;;;35.90;74.80;;;;;;5130573;27;20466;-71
2021/06/29 12:55:18;;;;;;;7.83;7.23;;;36.00;74.20;;;;;;5129103;27;20211;-69